sensor_id;sensor_type;location;lat;lon;timestamp;pressure;altitude;pressure_sealevel;temperature;humidity
15880;BME280;61999;51.514;14.614;2022-09-13T00:01:04;99772.00;;;7.64;50.58
15880;BME280;61999;51.514;14.614;2022-09-13T00:03:32;99766.84;;;7.62;50.83
15880;BME280;61999;51.514;14.614;2022-09-13T00:06:08;99767.81;;;7.61;50.89
15880;BME280;61999;51.514;14.614;2022-09-13T00:08:37;99760.03;;;7.60;51.49
15880;BME280;61999;51.514;14.614;2022-09-13T00:11:06;99763.75;;;7.57;51.31
15880;BME280;61999;51.514;14.614;2022-09-13T00:13:34;99759.41;;;7.56;51.39
15880;BME280;61999;51.514;14.614;2022-09-13T00:16:02;99756.91;;;7.54;51.39
15880;BME280;61999;51.514;14.614;2022-09-13T00:18:30;99746.53;;;7.53;51.44
15880;BME280;61999;51.514;14.614;2022-09-13T00:21:09;99757.00;;;7.53;51.09
15880;BME280;61999;51.514;14.614;2022-09-13T00:23:38;99754.63;;;7.50;51.12
15880;BME280;61999;51.514;14.614;2022-09-13T00:26:10;99740.75;;;7.48;50.95
15880;BME280;61999;51.514;14.614;2022-09-13T00:28:39;99745.41;;;7.44;50.89
15880;BME280;61999;51.514;14.614;2022-09-13T00:31:08;99734.06;;;7.44;51.04
15880;BME280;61999;51.514;14.614;2022-09-13T00:33:37;99729.97;;;7.40;50.88
15880;BME280;61999;51.514;14.614;2022-09-13T00:36:08;99732.72;;;7.38;51.16
15880;BME280;61999;51.514;14.614;2022-09-13T00:38:38;99726.03;;;7.34;51.18
15880;BME280;61999;51.514;14.614;2022-09-13T00:41:10;99720.06;;;7.32;51.06
15880;BME280;61999;51.514;14.614;2022-09-13T00:43:49;99706.22;;;7.30;50.96
15880;BME280;61999;51.514;14.614;2022-09-13T00:46:27;99706.53;;;7.25;51.21
15880;BME280;61999;51.514;14.614;2022-09-13T00:49:02;99704.97;;;7.23;51.31
15880;BME280;61999;51.514;14.614;2022-09-13T00:51:34;99708.66;;;7.20;51.00
15880;BME280;61999;51.514;14.614;2022-09-13T00:54:03;99706.25;;;7.17;51.41
15880;BME280;61999;51.514;14.614;2022-09-13T00:56:38;99704.56;;;7.16;51.13
15880;BME280;61999;51.514;14.614;2022-09-13T00:59:12;99696.91;;;7.13;51.35
15880;BME280;61999;51.514;14.614;2022-09-13T01:01:47;99701.41;;;7.11;51.45
15880;BME280;61999;51.514;14.614;2022-09-13T01:04:20;99692.84;;;7.09;51.19
15880;BME280;61999;51.514;14.614;2022-09-13T01:06:58;99684.25;;;7.07;51.44
15880;BME280;61999;51.514;14.614;2022-09-13T01:09:30;99685.31;;;7.04;51.44
15880;BME280;61999;51.514;14.614;2022-09-13T01:12:04;99677.56;;;7.03;51.51
15880;BME280;61999;51.514;14.614;2022-09-13T01:14:36;99675.16;;;7.00;51.89
15880;BME280;61999;51.514;14.614;2022-09-13T01:17:05;99674.41;;;6.98;51.88
15880;BME280;61999;51.514;14.614;2022-09-13T01:19:34;99672.72;;;6.97;51.78
15880;BME280;61999;51.514;14.614;2022-09-13T01:22:51;99668.75;;;6.91;52.15
15880;BME280;61999;51.514;14.614;2022-09-13T01:29:35;99658.81;;;6.83;52.29
15880;BME280;61999;51.514;14.614;2022-09-13T01:32:23;99654.31;;;6.85;52.32
15880;BME280;61999;51.514;14.614;2022-09-13T01:35:09;99644.69;;;6.86;52.88
15880;BME280;61999;51.514;14.614;2022-09-13T01:37:52;99648.97;;;6.87;52.54
15880;BME280;61999;51.514;14.614;2022-09-13T01:40:38;99644.69;;;6.86;52.37
15880;BME280;61999;51.514;14.614;2022-09-13T01:43:26;99648.13;;;6.86;52.40
15880;BME280;61999;51.514;14.614;2022-09-13T01:46:05;99645.50;;;6.86;52.74
15880;BME280;61999;51.514;14.614;2022-09-13T01:48:52;99640.16;;;6.88;52.57
15880;BME280;61999;51.514;14.614;2022-09-13T01:51:28;99630.53;;;6.88;52.46
15880;BME280;61999;51.514;14.614;2022-09-13T01:54:14;99628.84;;;6.87;52.46
15880;BME280;61999;51.514;14.614;2022-09-13T01:56:57;99619.31;;;6.86;52.44
15880;BME280;61999;51.514;14.614;2022-09-13T01:59:36;99614.06;;;6.86;52.46
15880;BME280;61999;51.514;14.614;2022-09-13T02:02:12;99610.50;;;6.87;52.39
15880;BME280;61999;51.514;14.614;2022-09-13T02:04:51;99606.94;;;6.88;52.30
15880;BME280;61999;51.514;14.614;2022-09-13T02:07:26;99603.59;;;6.86;52.39
15880;BME280;61999;51.514;14.614;2022-09-13T02:10:06;99607.16;;;6.85;52.49
15880;BME280;61999;51.514;14.614;2022-09-13T02:12:39;99598.56;;;6.83;52.87
15880;BME280;61999;51.514;14.614;2022-09-13T02:15:15;99589.13;;;6.81;52.80
15880;BME280;61999;51.514;14.614;2022-09-13T02:17:49;99587.47;;;6.80;52.91
15880;BME280;61999;51.514;14.614;2022-09-13T02:20:25;99585.69;;;6.80;52.78
15880;BME280;61999;51.514;14.614;2022-09-13T02:22:59;99581.59;;;6.76;53.07
15880;BME280;61999;51.514;14.614;2022-09-13T02:25:32;99582.53;;;6.75;53.10
15880;BME280;61999;51.514;14.614;2022-09-13T02:28:08;99593.09;;;6.74;53.21
15880;BME280;61999;51.514;14.614;2022-09-13T02:30:42;99589.75;;;6.72;52.79
15880;BME280;61999;51.514;14.614;2022-09-13T02:33:18;99587.25;;;6.70;52.95
15880;BME280;61999;51.514;14.614;2022-09-13T02:35:59;99585.56;;;6.69;52.88
15880;BME280;61999;51.514;14.614;2022-09-13T02:38:34;99591.03;;;6.66;53.27
15880;BME280;61999;51.514;14.614;2022-09-13T02:41:13;99590.28;;;6.64;53.00
15880;BME280;61999;51.514;14.614;2022-09-13T02:43:49;99587.91;;;6.61;52.98
15880;BME280;61999;51.514;14.614;2022-09-13T02:46:31;99584.53;;;6.59;52.92
15880;BME280;61999;51.514;14.614;2022-09-13T02:49:10;99574.41;;;6.54;53.09
15880;BME280;61999;51.514;14.614;2022-09-13T02:51:54;99587.72;;;6.51;53.15
15880;BME280;61999;51.514;14.614;2022-09-13T02:54:29;99586.03;;;6.50;52.88
15880;BME280;61999;51.514;14.614;2022-09-13T02:57:06;99581.84;;;6.48;53.18
15880;BME280;61999;51.514;14.614;2022-09-13T02:59:36;99579.44;;;6.44;53.32
15880;BME280;61999;51.514;14.614;2022-09-13T03:02:07;99569.91;;;6.43;53.26
15880;BME280;61999;51.514;14.614;2022-09-13T03:04:37;99580.59;;;6.40;53.09
15880;BME280;61999;51.514;14.614;2022-09-13T03:07:09;99582.25;;;6.41;53.27
15880;BME280;61999;51.514;14.614;2022-09-13T03:09:45;99580.00;;;6.37;53.61
15880;BME280;61999;51.514;14.614;2022-09-13T03:12:43;99577.69;;;6.32;53.35
15880;BME280;61999;51.514;14.614;2022-09-13T03:15:32;99574.31;;;6.30;53.83
15880;BME280;61999;51.514;14.614;2022-09-13T03:18:16;99565.75;;;6.28;53.79
15880;BME280;61999;51.514;14.614;2022-09-13T03:21:00;99556.34;;;6.26;53.73
15880;BME280;61999;51.514;14.614;2022-09-13T03:23:54;99560.91;;;6.22;53.71
15880;BME280;61999;51.514;14.614;2022-09-13T03:26:40;99559.25;;;6.21;53.76
15880;BME280;61999;51.514;14.614;2022-09-13T03:29:28;99558.50;;;6.19;54.16
15880;BME280;61999;51.514;14.614;2022-09-13T03:32:13;99557.81;;;6.17;54.03
15880;BME280;61999;51.514;14.614;2022-09-13T03:34:52;99542.31;;;6.14;54.92
15880;BME280;61999;51.514;14.614;2022-09-13T03:37:28;99540.63;;;6.13;54.30
15880;BME280;61999;51.514;14.614;2022-09-13T03:40:08;99544.19;;;6.12;54.74
15880;BME280;61999;51.514;14.614;2022-09-13T03:42:44;99531.31;;;6.09;54.88
15880;BME280;61999;51.514;14.614;2022-09-13T03:45:20;99534.88;;;6.08;55.15
15880;BME280;61999;51.514;14.614;2022-09-13T03:47:51;99533.09;;;6.08;55.19
15880;BME280;61999;51.514;14.614;2022-09-13T03:50:23;99526.09;;;6.09;55.21
15880;BME280;61999;51.514;14.614;2022-09-13T03:52:59;99524.41;;;6.08;55.34
15880;BME280;61999;51.514;14.614;2022-09-13T03:55:31;99523.69;;;6.06;56.01
15880;BME280;61999;51.514;14.614;2022-09-13T03:58:03;99524.72;;;6.03;55.95
15880;BME280;61999;51.514;14.614;2022-09-13T04:00:32;99521.16;;;6.04;55.97
15880;BME280;61999;51.514;14.614;2022-09-13T04:02:59;99512.34;;;6.05;55.75
15880;BME280;61999;51.514;14.614;2022-09-13T04:05:27;99517.72;;;6.04;55.75
15880;BME280;61999;51.514;14.614;2022-09-13T04:07:55;99522.00;;;6.05;56.20
15880;BME280;61999;51.514;14.614;2022-09-13T04:10:23;99515.09;;;6.04;56.14
15880;BME280;61999;51.514;14.614;2022-09-13T04:12:53;99528.91;;;6.06;55.72
15880;BME280;61999;51.514;14.614;2022-09-13T04:15:21;99527.22;;;6.05;55.75
15880;BME280;61999;51.514;14.614;2022-09-13T04:17:50;99522.00;;;6.05;55.77
15880;BME280;61999;51.514;14.614;2022-09-13T04:20:18;99528.91;;;6.06;55.36
15880;BME280;61999;51.514;14.614;2022-09-13T04:22:50;99524.53;;;6.06;55.34
15880;BME280;61999;51.514;14.614;2022-09-13T04:25:19;99521.28;;;6.03;55.58
15880;BME280;61999;51.514;14.614;2022-09-13T04:27:48;99514.25;;;6.03;55.36
15880;BME280;61999;51.514;14.614;2022-09-13T04:30:21;99518.88;;;5.99;56.40
15880;BME280;61999;51.514;14.614;2022-09-13T04:32:49;99511.94;;;5.98;56.25
15880;BME280;61999;51.514;14.614;2022-09-13T04:35:17;99508.59;;;5.96;56.10
15880;BME280;61999;51.514;14.614;2022-09-13T04:37:45;99513.00;;;5.96;56.28
15880;BME280;61999;51.514;14.614;2022-09-13T04:40:13;99508.59;;;5.96;56.42
15880;BME280;61999;51.514;14.614;2022-09-13T04:42:43;99502.53;;;5.96;56.54
15880;BME280;61999;51.514;14.614;2022-09-13T04:45:11;99496.47;;;5.95;56.59
15880;BME280;61999;51.514;14.614;2022-09-13T04:47:41;99498.13;;;5.96;56.63
15880;BME280;61999;51.514;14.614;2022-09-13T04:50:09;99499.81;;;5.97;56.91
15880;BME280;61999;51.514;14.614;2022-09-13T04:52:36;99497.94;;;5.99;56.96
15880;BME280;61999;51.514;14.614;2022-09-13T04:55:08;99493.22;;;6.05;56.96
15880;BME280;61999;51.514;14.614;2022-09-13T04:57:36;99490.38;;;6.08;57.15
15880;BME280;61999;51.514;14.614;2022-09-13T05:00:06;99489.84;;;6.15;56.99
15880;BME280;61999;51.514;14.614;2022-09-13T05:02:34;99487.84;;;6.19;57.25
15880;BME280;61999;51.514;14.614;2022-09-13T05:05:04;99484.78;;;6.25;57.25
15880;BME280;61999;51.514;14.614;2022-09-13T05:07:33;99485.31;;;6.30;57.01
15880;BME280;61999;51.514;14.614;2022-09-13T05:10:00;99491.06;;;6.35;56.91
15880;BME280;61999;51.514;14.614;2022-09-13T05:12:28;99490.00;;;6.38;56.67
15880;BME280;61999;51.514;14.614;2022-09-13T05:14:56;99488.00;;;6.41;56.78
15880;BME280;61999;51.514;14.614;2022-09-13T05:17:24;99489.47;;;6.46;56.74
15880;BME280;61999;51.514;14.614;2022-09-13T05:19:53;99480.66;;;6.47;56.77
15880;BME280;61999;51.514;14.614;2022-09-13T05:22:22;99483.06;;;6.50;56.83
15880;BME280;61999;51.514;14.614;2022-09-13T05:24:50;99481.28;;;6.50;56.94
15880;BME280;61999;51.514;14.614;2022-09-13T05:27:18;99473.31;;;6.52;56.72
15880;BME280;61999;51.514;14.614;2022-09-13T05:29:46;99479.25;;;6.54;56.65
15880;BME280;61999;51.514;14.614;2022-09-13T05:32:14;99482.41;;;6.59;56.92
15880;BME280;61999;51.514;14.614;2022-09-13T05:34:41;99472.44;;;6.64;57.11
15880;BME280;61999;51.514;14.614;2022-09-13T05:37:10;99473.66;;;6.71;56.98
15880;BME280;61999;51.514;14.614;2022-09-13T05:39:39;99473.03;;;6.80;57.17
15880;BME280;61999;51.514;14.614;2022-09-13T05:42:19;99467.94;;;6.90;57.12
15880;BME280;61999;51.514;14.614;2022-09-13T05:44:47;99474.19;;;7.00;57.22
15880;BME280;61999;51.514;14.614;2022-09-13T05:47:15;99470.75;;;7.11;57.53
15880;BME280;61999;51.514;14.614;2022-09-13T05:49:43;99464.00;;;7.20;57.54
15880;BME280;61999;51.514;14.614;2022-09-13T05:52:27;99472.97;;;7.28;57.71
15880;BME280;61999;51.514;14.614;2022-09-13T05:54:56;99467.03;;;7.38;57.76
15880;BME280;61999;51.514;14.614;2022-09-13T05:57:24;99461.31;;;7.44;57.59
15880;BME280;61999;51.514;14.614;2022-09-13T05:59:52;99464.19;;;7.52;57.77
15880;BME280;61999;51.514;14.614;2022-09-13T06:02:24;99456.56;;;7.60;57.74
15880;BME280;61999;51.514;14.614;2022-09-13T06:04:52;99447.50;;;7.64;57.72
15880;BME280;61999;51.514;14.614;2022-09-13T06:07:20;99448.91;;;7.68;57.66
15880;BME280;61999;51.514;14.614;2022-09-13T06:09:48;99449.31;;;7.75;57.79
15880;BME280;61999;51.514;14.614;2022-09-13T06:12:17;99440.84;;;7.83;58.04
15880;BME280;61999;51.514;14.614;2022-09-13T06:14:45;99441.09;;;7.91;57.99
15880;BME280;61999;51.514;14.614;2022-09-13T06:17:12;99442.28;;;7.98;58.19
15880;BME280;61999;51.514;14.614;2022-09-13T06:19:40;99436.44;;;8.06;58.37
15880;BME280;61999;51.514;14.614;2022-09-13T06:22:08;99437.13;;;8.08;58.74
15880;BME280;61999;51.514;14.614;2022-09-13T06:24:36;99439.19;;;8.04;59.18
15880;BME280;61999;51.514;14.614;2022-09-13T06:27:04;99437.59;;;7.68;61.17
15880;BME280;61999;51.514;14.614;2022-09-13T06:29:33;99440.59;;;7.97;60.45
15880;BME280;61999;51.514;14.614;2022-09-13T06:32:02;99440.75;;;7.95;61.09
15880;BME280;61999;51.514;14.614;2022-09-13T06:34:30;99437.03;;;8.20;59.97
15880;BME280;61999;51.514;14.614;2022-09-13T06:36:58;99437.44;;;8.37;59.87
15880;BME280;61999;51.514;14.614;2022-09-13T06:39:26;99429.50;;;8.59;59.81
15880;BME280;61999;51.514;14.614;2022-09-13T06:41:54;99426.34;;;8.77;60.01
15880;BME280;61999;51.514;14.614;2022-09-13T06:44:22;99421.50;;;8.93;60.40
15880;BME280;61999;51.514;14.614;2022-09-13T06:46:52;99424.75;;;9.18;60.17
15880;BME280;61999;51.514;14.614;2022-09-13T06:49:20;99442.69;;;9.12;60.44
15880;BME280;61999;51.514;14.614;2022-09-13T06:51:47;99435.56;;;9.03;59.92
15880;BME280;61999;51.514;14.614;2022-09-13T06:54:15;99443.63;;;8.47;61.57
15880;BME280;61999;51.514;14.614;2022-09-13T06:56:43;99433.16;;;8.79;60.71
15880;BME280;61999;51.514;14.614;2022-09-13T06:59:11;99427.19;;;9.09;60.54
15880;BME280;61999;51.514;14.614;2022-09-13T07:01:42;99431.72;;;8.43;61.86
15880;BME280;61999;51.514;14.614;2022-09-13T07:04:13;99428.56;;;8.60;62.14
15880;BME280;61999;51.514;14.614;2022-09-13T07:06:43;99418.97;;;9.24;60.39
15880;BME280;61999;51.514;14.614;2022-09-13T07:09:15;99424.66;;;9.50;59.41
15880;BME280;61999;51.514;14.614;2022-09-13T07:11:45;99426.91;;;9.54;59.36
15880;BME280;61999;51.514;14.614;2022-09-13T07:14:16;99424.81;;;9.58;59.06
15880;BME280;61999;51.514;14.614;2022-09-13T07:16:45;99416.91;;;9.06;61.42
15880;BME280;61999;51.514;14.614;2022-09-13T07:19:17;99417.34;;;9.32;61.24
15880;BME280;61999;51.514;14.614;2022-09-13T07:21:46;99424.28;;;9.12;61.18
15880;BME280;61999;51.514;14.614;2022-09-13T07:24:20;99423.31;;;9.13;61.25
15880;BME280;61999;51.514;14.614;2022-09-13T07:26:48;99420.34;;;9.28;61.24
15880;BME280;61999;51.514;14.614;2022-09-13T07:29:19;99420.88;;;9.22;61.79
15880;BME280;61999;51.514;14.614;2022-09-13T07:31:51;99417.78;;;9.17;61.04
15880;BME280;61999;51.514;14.614;2022-09-13T07:34:23;99415.09;;;9.28;61.60
15880;BME280;61999;51.514;14.614;2022-09-13T07:36:52;99422.19;;;9.37;61.38
15880;BME280;61999;51.514;14.614;2022-09-13T07:39:20;99420.94;;;9.83;60.57
15880;BME280;61999;51.514;14.614;2022-09-13T07:41:48;99426.78;;;9.35;61.21
15880;BME280;61999;51.514;14.614;2022-09-13T07:44:16;99430.88;;;9.79;60.76
15880;BME280;61999;51.514;14.614;2022-09-13T07:46:44;99430.72;;;9.50;60.76
15880;BME280;61999;51.514;14.614;2022-09-13T07:49:15;99434.41;;;9.38;61.51
15880;BME280;61999;51.514;14.614;2022-09-13T07:51:45;99421.53;;;9.35;61.37
15880;BME280;61999;51.514;14.614;2022-09-13T07:54:19;99412.06;;;9.84;60.50
15880;BME280;61999;51.514;14.614;2022-09-13T07:56:50;99428.59;;;9.86;60.12
15880;BME280;61999;51.514;14.614;2022-09-13T07:59:18;99430.03;;;9.48;60.81
15880;BME280;61999;51.514;14.614;2022-09-13T08:01:48;99419.75;;;9.15;62.39
15880;BME280;61999;51.514;14.614;2022-09-13T08:04:19;99422.47;;;9.34;62.07
15880;BME280;61999;51.514;14.614;2022-09-13T08:06:48;99418.69;;;9.69;61.36
15880;BME280;61999;51.514;14.614;2022-09-13T08:09:17;99426.63;;;9.57;61.16
15880;BME280;61999;51.514;14.614;2022-09-13T08:11:48;99426.38;;;9.61;61.98
15880;BME280;61999;51.514;14.614;2022-09-13T08:14:21;99419.81;;;9.76;61.90
15880;BME280;61999;51.514;14.614;2022-09-13T08:16:53;99417.59;;;10.31;60.36
15880;BME280;61999;51.514;14.614;2022-09-13T08:19:21;99424.31;;;10.74;58.32
15880;BME280;61999;51.514;14.614;2022-09-13T08:21:51;99419.19;;;10.82;58.57
15880;BME280;61999;51.514;14.614;2022-09-13T08:24:20;99419.31;;;10.90;58.59
15880;BME280;61999;51.514;14.614;2022-09-13T08:26:48;99419.16;;;10.43;62.07
15880;BME280;61999;51.514;14.614;2022-09-13T08:29:17;99412.53;;;10.68;60.83
15880;BME280;61999;51.514;14.614;2022-09-13T08:31:45;99419.19;;;10.63;62.70
15880;BME280;61999;51.514;14.614;2022-09-13T08:34:14;99419.94;;;10.34;64.51
15880;BME280;61999;51.514;14.614;2022-09-13T08:36:44;99423.66;;;10.72;63.04
15880;BME280;61999;51.514;14.614;2022-09-13T08:39:13;99413.91;;;11.02;61.75
15880;BME280;61999;51.514;14.614;2022-09-13T08:41:59;99426.88;;;10.25;64.89
15880;BME280;61999;51.514;14.614;2022-09-13T08:44:30;99426.41;;;10.01;66.77
15880;BME280;61999;51.514;14.614;2022-09-13T08:47:17;99424.88;;;9.98;67.06
15880;BME280;61999;51.514;14.614;2022-09-13T08:49:54;99423.34;;;9.96;67.58
15880;BME280;61999;51.514;14.614;2022-09-13T08:52:32;99421.00;;;10.02;66.94
15880;BME280;61999;51.514;14.614;2022-09-13T08:55:18;99418.06;;;10.46;66.15
15880;BME280;61999;51.514;14.614;2022-09-13T08:57:55;99418.28;;;10.23;65.74
15880;BME280;61999;51.514;14.614;2022-09-13T09:00:35;99419.63;;;10.08;66.35
15880;BME280;61999;51.514;14.614;2022-09-13T09:03:19;99419.81;;;9.76;67.34
15880;BME280;61999;51.514;14.614;2022-09-13T09:05:51;99419.44;;;9.90;66.24
15880;BME280;61999;51.514;14.614;2022-09-13T09:08:29;99411.97;;;9.65;66.66
15880;BME280;61999;51.514;14.614;2022-09-13T09:11:12;99407.16;;;10.00;65.75
15880;BME280;61999;51.514;14.614;2022-09-13T09:13:50;99408.88;;;10.31;64.71
15880;BME280;61999;51.514;14.614;2022-09-13T09:16:33;99409.13;;;10.37;64.91
15880;BME280;61999;51.514;14.614;2022-09-13T09:19:15;99406.66;;;10.45;63.34
15880;BME280;61999;51.514;14.614;2022-09-13T09:21:46;99401.03;;;10.00;64.27
15880;BME280;61999;51.514;14.614;2022-09-13T09:24:20;99413.41;;;9.69;65.08
15880;BME280;61999;51.514;14.614;2022-09-13T09:26:52;99408.38;;;9.66;65.93
15880;BME280;61999;51.514;14.614;2022-09-13T09:29:23;99398.81;;;9.95;66.20
15880;BME280;61999;51.514;14.614;2022-09-13T09:32:05;99381.56;;;9.72;65.47
15880;BME280;61999;51.514;14.614;2022-09-13T09:34:53;99383.53;;;10.59;64.79
15880;BME280;61999;51.514;14.614;2022-09-13T09:37:28;99381.88;;;9.88;63.95
15880;BME280;61999;51.514;14.614;2022-09-13T09:40:00;99375.75;;;9.78;65.63
15880;BME280;61999;51.514;14.614;2022-09-13T09:42:38;99374.69;;;9.90;65.13
15880;BME280;61999;51.514;14.614;2022-09-13T09:45:24;99379.94;;;9.90;65.76
15880;BME280;61999;51.514;14.614;2022-09-13T09:47:55;99369.78;;;10.26;64.38
15880;BME280;61999;51.514;14.614;2022-09-13T09:50:32;99375.16;;;10.15;64.45
15880;BME280;61999;51.514;14.614;2022-09-13T09:53:06;99375.59;;;10.39;63.92
15880;BME280;61999;51.514;14.614;2022-09-13T09:55:44;99370.47;;;10.47;62.95
15880;BME280;61999;51.514;14.614;2022-09-13T09:58:14;99366.16;;;10.85;62.73
15880;BME280;61999;51.514;14.614;2022-09-13T10:00:55;99372.00;;;10.40;63.28
15880;BME280;61999;51.514;14.614;2022-09-13T10:03:27;99363.63;;;10.16;64.32
15880;BME280;61999;51.514;14.614;2022-09-13T10:06:05;99356.44;;;10.37;63.21
15880;BME280;61999;51.514;14.614;2022-09-13T10:08:38;99356.34;;;10.68;62.58
15880;BME280;61999;51.514;14.614;2022-09-13T10:11:07;99356.41;;;11.05;61.47
15880;BME280;61999;51.514;14.614;2022-09-13T10:13:37;99355.19;;;11.00;60.49
15880;BME280;61999;51.514;14.614;2022-09-13T10:16:24;99353.69;;;10.68;61.46
15880;BME280;61999;51.514;14.614;2022-09-13T10:18:52;99352.81;;;10.97;61.84
15880;BME280;61999;51.514;14.614;2022-09-13T10:21:24;99350.66;;;10.63;62.75
15880;BME280;61999;51.514;14.614;2022-09-13T10:24:15;99357.34;;;11.24;60.61
15880;BME280;61999;51.514;14.614;2022-09-13T10:26:45;99351.03;;;11.81;58.81
15880;BME280;61999;51.514;14.614;2022-09-13T10:29:16;99346.44;;;11.84;58.88
15880;BME280;61999;51.514;14.614;2022-09-13T10:31:48;99345.69;;;11.64;58.44
15880;BME280;61999;51.514;14.614;2022-09-13T10:34:22;99346.75;;;12.16;57.27
15880;BME280;61999;51.514;14.614;2022-09-13T10:36:56;99337.47;;;11.29;59.46
15880;BME280;61999;51.514;14.614;2022-09-13T10:39:27;99336.31;;;11.97;58.24
15880;BME280;61999;51.514;14.614;2022-09-13T10:42:00;99339.97;;;12.67;55.23
15880;BME280;61999;51.514;14.614;2022-09-13T10:44:39;99332.91;;;12.50;54.95
15880;BME280;61999;51.514;14.614;2022-09-13T10:47:13;99333.94;;;12.57;55.50
15880;BME280;61999;51.514;14.614;2022-09-13T10:49:50;99319.25;;;12.99;54.16
15880;BME280;61999;51.514;14.614;2022-09-13T10:52:31;99323.00;;;14.07;51.22
15880;BME280;61999;51.514;14.614;2022-09-13T10:55:31;99320.22;;;14.99;50.15
15880;BME280;61999;51.514;14.614;2022-09-13T10:58:18;99324.81;;;14.15;49.73
15880;BME280;61999;51.514;14.614;2022-09-13T11:01:34;99324.81;;;14.15;49.32
15880;BME280;61999;51.514;14.614;2022-09-13T11:04:35;99316.03;;;13.55;51.15
15880;BME280;61999;51.514;14.614;2022-09-13T11:07:28;99314.91;;;13.24;52.38
15880;BME280;61999;51.514;14.614;2022-09-13T11:10:07;99325.47;;;13.15;52.93
15880;BME280;61999;51.514;14.614;2022-09-13T11:12:46;99316.75;;;13.31;53.10
15880;BME280;61999;51.514;14.614;2022-09-13T11:15:34;99324.44;;;13.85;51.88
15880;BME280;61999;51.514;14.614;2022-09-13T11:18:48;99313.75;;;14.93;49.66
15880;BME280;61999;51.514;14.614;2022-09-13T11:21:36;99312.38;;;15.13;47.30
15880;BME280;61999;51.514;14.614;2022-09-13T11:24:33;99304.66;;;14.79;47.63
15880;BME280;61999;51.514;14.614;2022-09-13T11:27:17;99304.28;;;13.92;51.24
15880;BME280;61999;51.514;14.614;2022-09-13T11:30:09;99307.31;;;14.79;48.99
15880;BME280;61999;51.514;14.614;2022-09-13T11:32:59;99302.63;;;14.40;48.89
15880;BME280;61999;51.514;14.614;2022-09-13T11:35:48;99302.34;;;14.43;49.12
15880;BME280;61999;51.514;14.614;2022-09-13T11:38:38;99296.34;;;14.33;49.99
15880;BME280;61999;51.514;14.614;2022-09-13T11:41:25;99298.31;;;14.15;50.36
15880;BME280;61999;51.514;14.614;2022-09-13T11:47:21;99295.94;;;15.18;48.90
15880;BME280;61999;51.514;14.614;2022-09-13T11:50:05;99285.97;;;15.28;47.09
15880;BME280;61999;51.514;14.614;2022-09-13T11:53:04;99286.84;;;15.12;48.45
15880;BME280;61999;51.514;14.614;2022-09-13T11:55:41;99287.00;;;15.11;47.25
15880;BME280;61999;51.514;14.614;2022-09-13T11:58:17;99273.13;;;14.02;49.88
15880;BME280;61999;51.514;14.614;2022-09-13T12:00:51;99274.06;;;15.08;48.54
15880;BME280;61999;51.514;14.614;2022-09-13T12:03:29;99275.06;;;15.54;45.78
15880;BME280;61999;51.514;14.614;2022-09-13T12:06:04;99268.19;;;15.99;46.50
15880;BME280;61999;51.514;14.614;2022-09-13T12:08:42;99289.81;;;16.19;44.61
15880;BME280;61999;51.514;14.614;2022-09-13T12:11:16;99270.84;;;14.65;47.44
15880;BME280;61999;51.514;14.614;2022-09-13T12:13:53;99267.16;;;15.38;46.13
15880;BME280;61999;51.514;14.614;2022-09-13T12:16:27;99261.78;;;15.86;44.92
15880;BME280;61999;51.514;14.614;2022-09-13T12:19:04;99265.94;;;15.49;46.24
15880;BME280;61999;51.514;14.614;2022-09-13T12:21:38;99265.44;;;16.54;43.33
15880;BME280;61999;51.514;14.614;2022-09-13T12:24:17;99262.47;;;15.79;44.96
15880;BME280;61999;51.514;14.614;2022-09-13T12:26:53;99242.81;;;17.17;42.25
15880;BME280;61999;51.514;14.614;2022-09-13T12:29:31;99244.78;;;18.24;39.55
15880;BME280;61999;51.514;14.614;2022-09-13T12:32:05;99244.69;;;17.53;41.48
15880;BME280;61999;51.514;14.614;2022-09-13T12:34:43;99249.97;;;19.64;38.83
15880;BME280;61999;51.514;14.614;2022-09-13T12:37:47;99245.81;;;17.80;39.23
15880;BME280;61999;51.514;14.614;2022-09-13T12:40:42;99240.69;;;16.83;42.57
15880;BME280;61999;51.514;14.614;2022-09-13T12:47:03;99226.38;;;17.65;39.84
15880;BME280;61999;51.514;14.614;2022-09-13T12:49:51;99229.19;;;18.42;38.88
15880;BME280;61999;51.514;14.614;2022-09-13T12:52:34;99222.38;;;17.39;41.83
15880;BME280;61999;51.514;14.614;2022-09-13T12:55:39;99227.09;;;16.92;42.35
15880;BME280;61999;51.514;14.614;2022-09-13T12:58:47;99229.75;;;16.25;42.33
15880;BME280;61999;51.514;14.614;2022-09-13T13:01:22;99231.75;;;16.23;43.87
15880;BME280;61999;51.514;14.614;2022-09-13T13:03:53;99220.22;;;15.93;43.39
15880;BME280;61999;51.514;14.614;2022-09-13T13:06:36;99223.59;;;15.55;44.51
15880;BME280;61999;51.514;14.614;2022-09-13T13:09:22;99226.97;;;14.93;45.88
15880;BME280;61999;51.514;14.614;2022-09-13T13:11:56;99215.22;;;14.88;46.60
15880;BME280;61999;51.514;14.614;2022-09-13T13:14:42;99213.66;;;15.10;46.31
15880;BME280;61999;51.514;14.614;2022-09-13T13:17:34;99221.91;;;14.76;46.98
15880;BME280;61999;51.514;14.614;2022-09-13T13:20:45;99214.47;;;14.55;47.79
15880;BME280;61999;51.514;14.614;2022-09-13T13:23:21;99215.78;;;14.42;49.11
15880;BME280;61999;51.514;14.614;2022-09-13T13:26:10;99215.00;;;14.98;48.39
15880;BME280;61999;51.514;14.614;2022-09-13T13:29:09;99211.53;;;15.45;47.49
15880;BME280;61999;51.514;14.614;2022-09-13T13:31:42;99207.16;;;16.21;45.07
15880;BME280;61999;51.514;14.614;2022-09-13T13:34:44;99215.06;;;16.29;44.69
15880;BME280;61999;51.514;14.614;2022-09-13T13:37:31;99217.78;;;15.52;45.96
15880;BME280;61999;51.514;14.614;2022-09-13T13:40:21;99208.50;;;14.28;49.14
15880;BME280;61999;51.514;14.614;2022-09-13T13:43:16;99208.19;;;14.47;47.68
15880;BME280;61999;51.514;14.614;2022-09-13T13:46:23;99201.56;;;14.11;49.08
15880;BME280;61999;51.514;14.614;2022-09-13T13:48:53;99206.03;;;14.10;48.58
15880;BME280;61999;51.514;14.614;2022-09-13T13:51:26;99196.56;;;14.48;49.03
15880;BME280;61999;51.514;14.614;2022-09-13T13:54:29;99203.16;;;15.56;46.45